Time;durP1;ratioP1;P1;durP2;ratioP2;P2;SDS_P1;SDS_P2;PMS_P1;PMS_P2;Temp;Humidity;BMP_temperature;BMP_pressure;BME280_temperature;BME280_humidity;BME280_pressure;Samples;Min_cycle;Max_cycle;Signal;HPM_P1;HPM_P2
2023/01/22 00:02:40;;;;;;;11.60;6.60;;;;;;;;;;10369870;28;20025;-45
2023/01/22 00:07:41;;;;;;;8.60;6.07;;;;;;;;;;10368744;28;20044;-45
2023/01/22 00:12:42;;;;;;;14.77;6.95;;;;;;;;;;10369036;28;20048;-50
2023/01/22 00:17:42;;;;;;;10.20;6.32;;;;;;;;;;10370710;28;20091;-48
2023/01/22 00:22:43;;;;;;;11.63;6.72;;;;;;;;;;10371061;28;20054;-54
2023/01/22 00:27:43;;;;;;;8.77;6.25;;;;;;;;;;10369200;28;20053;-53
2023/01/22 00:32:45;;;;;;;11.50;5.85;;;;;;;;;;10367256;28;20042;-52
2023/01/22 00:37:47;;;;;;;13.55;7.05;;;;;;;;;;10365609;28;20053;-49
2023/01/22 00:42:47;;;;;;;9.77;6.50;;;;;;;;;;10380295;28;20061;-47
2023/01/22 00:47:48;;;;;;;8.52;6.30;;;;;;;;;;10371773;28;20040;-61
2023/01/22 00:52:48;;;;;;;9.65;6.40;;;;;;;;;;10376967;28;20408;-58
2023/01/22 00:57:49;;;;;;;13.20;6.38;;;;;;;;;;10365204;28;20482;-45
2023/01/22 01:08:09;;;;;;;8.18;5.95;;;;;;;;;;10377947;28;20405;-46
2023/01/22 01:13:11;;;;;;;10.32;6.50;;;;;;;;;;10366813;28;20034;-49
2023/01/22 01:18:13;;;;;;;14.15;6.13;;;;;;;;;;10380285;28;20057;-49
2023/01/22 01:23:13;;;;;;;9.20;6.15;;;;;;;;;;10364764;28;20087;-46
2023/01/22 01:28:14;;;;;;;9.65;5.63;;;;;;;;;;10366713;28;20018;-47
2023/01/22 01:33:14;;;;;;;8.95;5.65;;;;;;;;;;10365082;28;20034;-48
2023/01/22 01:38:15;;;;;;;13.80;6.05;;;;;;;;;;10355141;28;20501;-50
2023/01/22 01:43:16;;;;;;;8.57;5.43;;;;;;;;;;10361688;28;21074;-52
2023/01/22 01:48:24;;;;;;;8.35;6.57;;;;;;;;;;10362865;28;20056;-52
2023/01/22 01:53:25;;;;;;;16.05;6.55;;;;;;;;;;10359524;28;20038;-57
2023/01/22 01:58:29;;;;;;;9.30;6.13;;;;;;;;;;10362051;28;20021;-52
2023/01/22 02:03:30;;;;;;;7.55;5.60;;;;;;;;;;10362629;28;20029;-50
2023/01/22 02:08:31;;;;;;;7.78;6.22;;;;;;;;;;10365332;28;21431;-49
2023/01/22 02:13:34;;;;;;;9.82;6.40;;;;;;;;;;10365129;28;20117;-52
2023/01/22 02:18:35;;;;;;;9.40;6.82;;;;;;;;;;10347373;28;20663;-56
2023/01/22 02:23:35;;;;;;;10.32;6.65;;;;;;;;;;10365561;28;20325;-48
2023/01/22 02:28:36;;;;;;;8.98;5.47;;;;;;;;;;10364342;28;20030;-50
2023/01/22 02:33:36;;;;;;;7.50;5.85;;;;;;;;;;10363862;28;20096;-52
2023/01/22 02:38:37;;;;;;;10.02;6.13;;;;;;;;;;10363806;28;20047;-51
2023/01/22 02:43:38;;;;;;;9.07;6.10;;;;;;;;;;10363444;28;20112;-49
2023/01/22 02:48:38;;;;;;;7.53;5.70;;;;;;;;;;10363403;28;20018;-46
2023/01/22 02:53:39;;;;;;;10.23;5.95;;;;;;;;;;10362992;28;20046;-45
2023/01/22 02:58:39;;;;;;;8.75;5.70;;;;;;;;;;10364269;28;20045;-50
2023/01/22 03:03:40;;;;;;;9.48;5.60;;;;;;;;;;10363803;28;20034;-46
2023/01/22 03:08:42;;;;;;;9.38;5.85;;;;;;;;;;10364264;28;20037;-45
2023/01/22 03:24:22;;;;;;;9.70;5.95;;;;;;;;;;10361874;28;20030;-45
2023/01/22 03:29:22;;;;;;;10.20;5.82;;;;;;;;;;10370973;28;20021;-47
2023/01/22 03:34:24;;;;;;;7.68;5.43;;;;;;;;;;10370542;28;20037;-47
2023/01/22 03:39:26;;;;;;;7.22;5.32;;;;;;;;;;10370291;28;20598;-49
2023/01/22 03:44:27;;;;;;;7.53;5.38;;;;;;;;;;10369486;28;20087;-48
2023/01/22 03:49:28;;;;;;;6.68;5.15;;;;;;;;;;10369054;28;20068;-45
2023/01/22 03:54:28;;;;;;;6.88;5.18;;;;;;;;;;10369535;28;20448;-49
2023/01/22 03:59:29;;;;;;;10.93;5.45;;;;;;;;;;10368905;28;20033;-50
2023/01/22 04:04:29;;;;;;;7.38;5.10;;;;;;;;;;10369019;28;20042;-49
2023/01/22 04:09:30;;;;;;;7.63;5.38;;;;;;;;;;10368265;28;20025;-52
2023/01/22 04:14:30;;;;;;;8.93;5.20;;;;;;;;;;10369368;28;20025;-48
2023/01/22 04:19:31;;;;;;;6.10;4.90;;;;;;;;;;10368722;28;20034;-51
2023/01/22 04:24:31;;;;;;;7.03;4.90;;;;;;;;;;10367720;28;20041;-54
2023/01/22 04:29:32;;;;;;;6.65;5.00;;;;;;;;;;10368284;28;20113;-57
2023/01/22 04:34:33;;;;;;;7.15;4.97;;;;;;;;;;10367717;28;20022;-53
2023/01/22 04:39:33;;;;;;;7.70;4.90;;;;;;;;;;10368258;28;20477;-46
2023/01/22 04:44:34;;;;;;;8.07;5.07;;;;;;;;;;10367226;28;20540;-50
2023/01/22 04:49:34;;;;;;;7.85;5.40;;;;;;;;;;10367162;28;20462;-48
2023/01/22 04:54:35;;;;;;;7.32;4.28;;;;;;;;;;10366357;28;20033;-45
2023/01/22 04:59:35;;;;;;;12.35;4.97;;;;;;;;;;10366943;28;20018;-53
2023/01/22 05:04:36;;;;;;;6.70;4.70;;;;;;;;;;10366070;28;20049;-49
2023/01/22 05:09:36;;;;;;;6.25;4.68;;;;;;;;;;10366848;28;20030;-45
2023/01/22 05:14:37;;;;;;;6.80;5.10;;;;;;;;;;10366780;28;20026;-45
2023/01/22 05:19:37;;;;;;;6.03;4.00;;;;;;;;;;10366273;28;20056;-45
2023/01/22 05:24:38;;;;;;;5.82;4.43;;;;;;;;;;10366682;28;20037;-49
2023/01/22 05:29:39;;;;;;;5.25;4.32;;;;;;;;;;10367240;28;20033;-49
2023/01/22 05:34:39;;;;;;;5.97;4.00;;;;;;;;;;10365528;28;20029;-50
2023/01/22 05:39:40;;;;;;;7.63;5.13;;;;;;;;;;10366490;28;20025;-46
2023/01/22 05:44:41;;;;;;;8.35;4.55;;;;;;;;;;10365380;28;20026;-48
2023/01/22 05:49:42;;;;;;;7.80;4.75;;;;;;;;;;10366286;28;20079;-45
2023/01/22 05:54:42;;;;;;;5.82;4.30;;;;;;;;;;10364829;28;20501;-48
2023/01/22 05:59:43;;;;;;;6.32;4.50;;;;;;;;;;10356919;28;20355;-49
2023/01/22 06:04:43;;;;;;;6.85;4.05;;;;;;;;;;10354882;28;20552;-47
2023/01/22 06:09:44;;;;;;;7.95;4.05;;;;;;;;;;10358900;28;20482;-47
2023/01/22 06:14:44;;;;;;;5.55;4.20;;;;;;;;;;10361892;28;20030;-47
2023/01/22 06:19:45;;;;;;;7.35;4.45;;;;;;;;;;10363375;28;20463;-52
2023/01/22 06:24:46;;;;;;;6.43;4.53;;;;;;;;;;10363097;28;20057;-50
2023/01/22 06:29:46;;;;;;;6.55;4.35;;;;;;;;;;10364119;28;20057;-58
2023/01/22 06:34:47;;;;;;;5.30;3.97;;;;;;;;;;10363930;28;20087;-49
2023/01/22 06:39:47;;;;;;;5.78;4.22;;;;;;;;;;10337312;28;20033;-58
2023/01/22 06:44:49;;;;;;;6.07;4.13;;;;;;;;;;10359136;28;20030;-57
2023/01/22 06:49:50;;;;;;;5.95;4.38;;;;;;;;;;10363482;28;20358;-56
2023/01/22 06:54:50;;;;;;;4.65;3.80;;;;;;;;;;10372178;28;20030;-52
2023/01/22 06:59:51;;;;;;;3.72;3.25;;;;;;;;;;10370894;28;20037;-49
2023/01/22 07:04:52;;;;;;;5.18;3.65;;;;;;;;;;10371499;28;20056;-47
2023/01/22 07:09:52;;;;;;;8.90;3.58;;;;;;;;;;10370069;28;20406;-46
2023/01/22 07:14:53;;;;;;;12.60;3.70;;;;;;;;;;10370629;28;20036;-46
2023/01/22 07:19:53;;;;;;;9.20;3.70;;;;;;;;;;10370209;28;20080;-45
2023/01/22 07:24:54;;;;;;;5.65;3.65;;;;;;;;;;10370711;28;20042;-45
2023/01/22 07:29:54;;;;;;;4.72;3.38;;;;;;;;;;10370607;28;20621;-49
2023/01/22 07:34:55;;;;;;;7.18;3.47;;;;;;;;;;10369580;28;20549;-45
2023/01/22 07:39:56;;;;;;;12.77;3.67;;;;;;;;;;10370789;28;20026;-45
2023/01/22 07:44:57;;;;;;;5.78;3.47;;;;;;;;;;10370363;28;20150;-46
2023/01/22 07:49:58;;;;;;;14.15;3.67;;;;;;;;;;10351684;28;20070;-55
2023/01/22 07:54:58;;;;;;;5.45;3.70;;;;;;;;;;10368983;28;20084;-45
2023/01/22 07:59:59;;;;;;;18.38;3.83;;;;;;;;;;10369083;28;20048;-45
2023/01/22 08:05:01;;;;;;;15.40;3.28;;;;;;;;;;10368608;28;20037;-45
2023/01/22 08:10:02;;;;;;;8.73;3.75;;;;;;;;;;10368419;28;20038;-50
2023/01/22 08:15:03;;;;;;;6.68;3.35;;;;;;;;;;10368245;28;20018;-46
2023/01/22 08:20:05;;;;;;;11.05;3.30;;;;;;;;;;10368512;28;20085;-57
2023/01/22 08:25:05;;;;;;;8.00;3.90;;;;;;;;;;10367573;28;20049;-54
2023/01/22 08:30:14;;;;;;;7.78;3.00;;;;;;;;;;10367672;28;20037;-52
2023/01/22 08:35:15;;;;;;;4.97;2.35;;;;;;;;;;10367367;28;20079;-44
2023/01/22 08:40:16;;;;;;;5.28;3.10;;;;;;;;;;10366893;28;20022;-46
2023/01/22 08:45:17;;;;;;;6.82;3.13;;;;;;;;;;10367387;28;20029;-46
2023/01/22 08:50:18;;;;;;;12.18;3.75;;;;;;;;;;10366811;28;20046;-45
2023/01/22 08:55:18;;;;;;;5.88;3.13;;;;;;;;;;10367164;28;20026;-45
2023/01/22 09:00:21;;;;;;;4.85;2.97;;;;;;;;;;10366783;28;20044;-45
2023/01/22 09:05:21;;;;;;;7.68;3.03;;;;;;;;;;10366631;28;20040;-49
2023/01/22 09:10:22;;;;;;;7.85;3.05;;;;;;;;;;10366177;28;20469;-45
2023/01/22 09:15:22;;;;;;;4.38;3.00;;;;;;;;;;10366962;28;20428;-46
2023/01/22 09:20:23;;;;;;;5.35;3.10;;;;;;;;;;10365180;28;20018;-45
2023/01/22 09:25:25;;;;;;;4.20;2.92;;;;;;;;;;10365538;28;20033;-48
2023/01/22 09:30:28;;;;;;;5.68;3.65;;;;;;;;;;10365676;28;20026;-46
2023/01/22 09:35:29;;;;;;;3.78;2.50;;;;;;;;;;10365706;28;20025;-60
2023/01/22 09:40:38;;;;;;;5.18;2.75;;;;;;;;;;10365096;28;20041;-45
2023/01/22 09:45:39;;;;;;;6.13;3.15;;;;;;;;;;10347752;28;20034;-46
2023/01/22 09:50:41;;;;;;;4.03;2.78;;;;;;;;;;10365786;28;20506;-48
2023/01/22 09:55:47;;;;;;;3.47;2.35;;;;;;;;;;10347818;28;20042;-46
2023/01/22 10:01:06;;;;;;;4.22;2.85;;;;;;;;;;10364358;28;20038;-45
2023/01/22 10:06:12;;;;;;;4.88;2.67;;;;;;;;;;10360339;28;20531;-45
2023/01/22 10:11:13;;;;;;;2.58;2.35;;;;;;;;;;10347353;28;20117;-46
2023/01/22 10:16:13;;;;;;;4.80;3.05;;;;;;;;;;10346582;28;20030;-47
2023/01/22 10:21:20;;;;;;;5.93;2.75;;;;;;;;;;10364680;28;20465;-46
2023/01/22 10:26:38;;;;;;;5.20;2.40;;;;;;;;;;10364087;28;20018;-48
2023/01/22 10:31:46;;;;;;;3.95;2.40;;;;;;;;;;10355597;28;20038;-45
2023/01/22 10:36:50;;;;;;;3.08;1.98;;;;;;;;;;10365775;28;20026;-45
2023/01/22 10:42:00;;;;;;;6.65;2.47;;;;;;;;;;10364692;28;20374;-45
2023/01/22 10:47:17;;;;;;;2.92;2.40;;;;;;;;;;10352585;28;20058;-45
2023/01/22 10:52:25;;;;;;;3.70;2.30;;;;;;;;;;10363757;28;20069;-45
2023/01/22 10:57:35;;;;;;;3.42;2.05;;;;;;;;;;10347730;28;20022;-45
2023/01/22 11:02:41;;;;;;;3.67;2.53;;;;;;;;;;10346859;28;20026;-46
2023/01/22 11:07:45;;;;;;;3.20;2.40;;;;;;;;;;10364354;28;20441;-45
2023/01/22 11:12:53;;;;;;;2.53;1.90;;;;;;;;;;10346673;28;20022;-45
2023/01/22 11:17:59;;;;;;;4.73;2.20;;;;;;;;;;10346736;28;20062;-46
2023/01/22 11:23:26;;;;;;;4.05;2.45;;;;;;;;;;10345335;28;20526;-50
2023/01/22 11:29:09;;;;;;;2.58;2.30;;;;;;;;;;10345870;28;20030;-45
2023/01/22 11:34:48;;;;;;;4.72;2.13;;;;;;;;;;10344444;28;20030;-45
2023/01/22 11:40:09;;;;;;;3.10;2.03;;;;;;;;;;10349468;28;20057;-45
2023/01/22 11:45:38;;;;;;;2.70;2.15;;;;;;;;;;10370613;28;20117;-45
2023/01/22 11:51:21;;;;;;;2.53;2.15;;;;;;;;;;10365208;28;20037;-45
2023/01/22 11:57:02;;;;;;;3.08;2.30;;;;;;;;;;10362287;28;20050;-48
2023/01/22 12:02:30;;;;;;;3.72;2.40;;;;;;;;;;10368998;28;20061;-49
2023/01/22 12:08:16;;;;;;;2.13;1.97;;;;;;;;;;10360657;28;20061;-46
2023/01/22 12:13:55;;;;;;;2.72;2.30;;;;;;;;;;10340827;28;20064;-46
2023/01/22 12:19:29;;;;;;;2.78;2.08;;;;;;;;;;10335175;28;20038;-45
2023/01/22 12:24:59;;;;;;;2.85;2.33;;;;;;;;;;10341418;28;20026;-45
2023/01/22 12:30:26;;;;;;;3.20;2.13;;;;;;;;;;10350148;28;20029;-46
2023/01/22 12:35:31;;;;;;;3.58;2.10;;;;;;;;;;10351892;28;20046;-46
2023/01/22 12:40:43;;;;;;;3.05;2.10;;;;;;;;;;10368136;28;20088;-45
2023/01/22 12:46:18;;;;;;;2.85;2.10;;;;;;;;;;10362204;28;20045;-46
2023/01/22 12:51:44;;;;;;;3.60;2.17;;;;;;;;;;10351861;28;20117;-45
2023/01/22 12:56:47;;;;;;;3.35;2.17;;;;;;;;;;10367559;28;20113;-45
2023/01/22 13:02:02;;;;;;;4.47;1.88;;;;;;;;;;10348786;28;20030;-46
2023/01/22 13:07:17;;;;;;;3.03;1.98;;;;;;;;;;10367087;28;20033;-46
2023/01/22 13:12:28;;;;;;;2.38;1.80;;;;;;;;;;10349476;28;20371;-45
2023/01/22 13:17:30;;;;;;;2.80;1.80;;;;;;;;;;10365234;28;20393;-46
2023/01/22 13:22:32;;;;;;;5.78;1.88;;;;;;;;;;10349552;28;20543;-47
2023/01/22 13:27:35;;;;;;;2.80;1.98;;;;;;;;;;10348534;28;20108;-45
2023/01/22 13:32:36;;;;;;;4.95;2.08;;;;;;;;;;10365313;28;20022;-46
2023/01/22 13:37:37;;;;;;;5.00;1.95;;;;;;;;;;10365539;28;20458;-49
2023/01/22 13:42:44;;;;;;;4.82;2.10;;;;;;;;;;10366580;28;20032;-46
2023/01/22 13:47:45;;;;;;;3.42;1.60;;;;;;;;;;10334829;28;20041;-46
2023/01/22 13:52:46;;;;;;;2.08;1.50;;;;;;;;;;10365515;28;20494;-45
2023/01/22 13:57:51;;;;;;;3.38;1.80;;;;;;;;;;10364608;28;20486;-45
2023/01/22 14:02:52;;;;;;;2.15;1.67;;;;;;;;;;10364310;28;20042;-46
2023/01/22 14:08:09;;;;;;;2.38;1.83;;;;;;;;;;10365545;28;20478;-47
2023/01/22 14:13:12;;;;;;;3.28;1.50;;;;;;;;;;10333734;28;20530;-46
2023/01/22 14:18:16;;;;;;;2.90;2.10;;;;;;;;;;10347381;28;20041;-46
2023/01/22 14:23:17;;;;;;;1.67;1.58;;;;;;;;;;10365591;28;20034;-49
2023/01/22 14:28:20;;;;;;;3.35;1.73;;;;;;;;;;10362924;28;20390;-49
2023/01/22 14:33:26;;;;;;;1.60;1.50;;;;;;;;;;10364217;28;20038;-45
2023/01/22 14:38:27;;;;;;;2.78;1.95;;;;;;;;;;10364223;28;20022;-45
2023/01/22 14:43:28;;;;;;;3.58;1.70;;;;;;;;;;10365764;28;20038;-46
2023/01/22 14:48:28;;;;;;;2.13;1.60;;;;;;;;;;10364829;28;20038;-45
2023/01/22 14:53:30;;;;;;;4.93;1.88;;;;;;;;;;10376815;28;20042;-46
2023/01/22 14:58:30;;;;;;;2.20;1.77;;;;;;;;;;10364397;28;20033;-45
2023/01/22 15:03:34;;;;;;;2.80;2.10;;;;;;;;;;10365344;28;20099;-45
2023/01/22 15:08:35;;;;;;;2.15;1.52;;;;;;;;;;10369455;28;20029;-46
2023/01/22 15:13:35;;;;;;;2.42;1.77;;;;;;;;;;10371892;28;20045;-49
2023/01/22 15:18:37;;;;;;;2.50;1.83;;;;;;;;;;10370225;28;20494;-45
2023/01/22 15:23:38;;;;;;;1.80;1.70;;;;;;;;;;10378341;28;20038;-45
2023/01/22 15:28:38;;;;;;;1.70;1.50;;;;;;;;;;10372519;28;20042;-49
2023/01/22 15:33:39;;;;;;;2.60;1.80;;;;;;;;;;10364445;28;20026;-47
2023/01/22 15:38:39;;;;;;;1.70;1.60;;;;;;;;;;10359539;28;20045;-45
2023/01/22 15:43:40;;;;;;;1.77;1.60;;;;;;;;;;10345155;28;20033;-51
2023/01/22 15:48:41;;;;;;;2.08;1.70;;;;;;;;;;10359297;28;20029;-46
2023/01/22 15:53:49;;;;;;;1.55;1.45;;;;;;;;;;10367583;28;20053;-47
2023/01/22 15:58:49;;;;;;;2.07;1.53;;;;;;;;;;10369063;28;20464;-49
2023/01/22 16:03:51;;;;;;;3.25;1.70;;;;;;;;;;10366101;28;20034;-46
2023/01/22 16:08:54;;;;;;;2.28;1.40;;;;;;;;;;10364559;28;20029;-46
2023/01/22 16:13:55;;;;;;;1.58;1.48;;;;;;;;;;10370872;28;20028;-45
2023/01/22 16:18:59;;;;;;;1.58;1.35;;;;;;;;;;10367750;28;20058;-46
2023/01/22 16:24:01;;;;;;;2.95;2.25;;;;;;;;;;10366226;28;20363;-47
2023/01/22 16:29:04;;;;;;;2.38;1.58;;;;;;;;;;10366273;28;20032;-49
2023/01/22 16:34:14;;;;;;;3.90;1.80;;;;;;;;;;10363907;28;20037;-46
2023/01/22 16:39:21;;;;;;;2.03;1.40;;;;;;;;;;10378056;28;20116;-49
2023/01/22 16:44:25;;;;;;;2.03;1.50;;;;;;;;;;10370315;28;20277;-49
2023/01/22 16:49:30;;;;;;;4.00;2.08;;;;;;;;;;10365650;28;20083;-49
2023/01/22 16:54:36;;;;;;;2.35;1.50;;;;;;;;;;10366761;28;20050;-45
2023/01/22 16:59:39;;;;;;;2.95;1.90;;;;;;;;;;10365454;28;20030;-44
2023/01/22 17:04:39;;;;;;;4.28;1.80;;;;;;;;;;10366929;28;20030;-46
2023/01/22 17:09:40;;;;;;;7.40;2.20;;;;;;;;;;10365504;28;20041;-45
2023/01/22 17:14:41;;;;;;;9.00;1.80;;;;;;;;;;10364920;28;20046;-46
2023/01/22 17:19:42;;;;;;;9.45;2.90;;;;;;;;;;10367959;28;20477;-48
2023/01/22 17:24:43;;;;;;;6.43;2.35;;;;;;;;;;10367956;28;20671;-49
2023/01/22 17:29:43;;;;;;;10.50;2.40;;;;;;;;;;10373878;28;20038;-45
2023/01/22 17:34:44;;;;;;;21.50;3.15;;;;;;;;;;10365857;28;20175;-45
2023/01/22 17:39:49;;;;;;;18.08;2.72;;;;;;;;;;10364650;28;20048;-61
2023/01/22 17:44:49;;;;;;;8.85;2.80;;;;;;;;;;10366571;28;20022;-59
2023/01/22 17:49:50;;;;;;;15.82;3.35;;;;;;;;;;10365395;28;20030;-62
2023/01/22 17:54:53;;;;;;;8.90;2.65;;;;;;;;;;10364682;28;20034;-61
2023/01/22 17:59:54;;;;;;;10.00;2.65;;;;;;;;;;10364580;28;20032;-61
2023/01/22 18:04:55;;;;;;;8.50;2.40;;;;;;;;;;10364815;28;20026;-61
2023/01/22 18:09:55;;;;;;;13.77;2.90;;;;;;;;;;10364396;28;20092;-60
2023/01/22 18:14:56;;;;;;;11.48;2.45;;;;;;;;;;10365040;28;20026;-61
2023/01/22 18:19:56;;;;;;;8.05;2.60;;;;;;;;;;10364400;28;20068;-60
2023/01/22 18:24:57;;;;;;;4.97;2.22;;;;;;;;;;10363356;28;20037;-49
2023/01/22 18:29:58;;;;;;;10.57;2.30;;;;;;;;;;10364334;28;20482;-58
2023/01/22 18:34:59;;;;;;;4.72;2.33;;;;;;;;;;10365015;28;20057;-61
2023/01/22 18:39:59;;;;;;;7.10;2.20;;;;;;;;;;10363363;28;20034;-62
2023/01/22 18:45:00;;;;;;;9.18;2.33;;;;;;;;;;10373178;28;20095;-61
2023/01/22 18:50:00;;;;;;;4.65;2.38;;;;;;;;;;10371678;28;20034;-62
2023/01/22 18:55:01;;;;;;;12.30;2.67;;;;;;;;;;10372681;28;20034;-61
2023/01/22 19:00:03;;;;;;;5.65;2.40;;;;;;;;;;10375816;28;20186;-58
2023/01/22 19:05:05;;;;;;;9.55;2.90;;;;;;;;;;10367048;28;20038;-51
2023/01/22 19:10:07;;;;;;;6.93;2.63;;;;;;;;;;10379192;28;20033;-51
2023/01/22 19:15:09;;;;;;;10.07;2.70;;;;;;;;;;10371948;28;20030;-48
2023/01/22 19:20:11;;;;;;;7.03;2.47;;;;;;;;;;10372410;28;20400;-46
2023/01/22 19:25:12;;;;;;;6.88;3.00;;;;;;;;;;10372166;28;20060;-53
2023/01/22 19:30:13;;;;;;;6.07;2.50;;;;;;;;;;10371181;28;20021;-51
2023/01/22 19:35:14;;;;;;;7.82;2.95;;;;;;;;;;10371837;28;20108;-54
2023/01/22 19:40:14;;;;;;;5.55;2.38;;;;;;;;;;10371114;28;20525;-48
2023/01/22 19:45:15;;;;;;;5.15;2.20;;;;;;;;;;10368936;28;20489;-54
2023/01/22 19:50:16;;;;;;;5.05;2.40;;;;;;;;;;10373929;28;20524;-53
2023/01/22 19:55:18;;;;;;;5.10;2.50;;;;;;;;;;10369400;28;20038;-59
2023/01/22 20:00:19;;;;;;;6.45;2.30;;;;;;;;;;10370434;28;20037;-51
2023/01/22 20:05:19;;;;;;;8.23;2.35;;;;;;;;;;10368902;28;20034;-49
2023/01/22 20:10:20;;;;;;;5.28;2.45;;;;;;;;;;10370803;28;20030;-47
2023/01/22 20:15:20;;;;;;;6.88;2.90;;;;;;;;;;10368312;28;20030;-50
2023/01/22 20:20:21;;;;;;;6.13;2.70;;;;;;;;;;10362153;28;20049;-53
2023/01/22 20:25:22;;;;;;;3.47;2.35;;;;;;;;;;10369333;28;20068;-48
2023/01/22 20:30:23;;;;;;;5.97;2.58;;;;;;;;;;10367561;28;20022;-59
2023/01/22 20:35:23;;;;;;;3.50;2.55;;;;;;;;;;10377485;28;20029;-45
2023/01/22 20:40:24;;;;;;;12.63;3.50;;;;;;;;;;10368724;28;20026;-68
2023/01/22 20:45:24;;;;;;;10.75;3.50;;;;;;;;;;10370633;28;20484;-66
2023/01/22 20:50:25;;;;;;;11.25;4.05;;;;;;;;;;10366711;28;20042;-67
2023/01/22 20:55:26;;;;;;;15.00;3.35;;;;;;;;;;10365185;28;20038;-57
2023/01/22 21:00:26;;;;;;;9.20;3.00;;;;;;;;;;10367689;28;20061;-64
2023/01/22 21:05:28;;;;;;;8.60;2.60;;;;;;;;;;10365313;28;20492;-45
2023/01/22 21:10:28;;;;;;;11.20;3.05;;;;;;;;;;10366341;28;20042;-54
2023/01/22 21:15:32;;;;;;;6.93;2.90;;;;;;;;;;10367152;28;20026;-54
2023/01/22 21:20:33;;;;;;;10.32;3.20;;;;;;;;;;10365407;28;20033;-45
2023/01/22 21:25:34;;;;;;;11.20;2.67;;;;;;;;;;10371863;28;20022;-58
2023/01/22 21:30:35;;;;;;;9.00;2.85;;;;;;;;;;10365613;28;20037;-49
2023/01/22 21:35:36;;;;;;;6.18;2.70;;;;;;;;;;10366195;28;20393;-53
2023/01/22 21:40:36;;;;;;;7.57;2.83;;;;;;;;;;10376234;28;20021;-60
2023/01/22 21:51:02;;;;;;;4.75;2.40;;;;;;;;;;10366334;28;20038;-51
2023/01/22 21:56:03;;;;;;;6.05;2.28;;;;;;;;;;10363458;28;20103;-57
2023/01/22 22:01:08;;;;;;;5.82;2.58;;;;;;;;;;10377569;28;20481;-62
2023/01/22 22:06:10;;;;;;;5.53;2.58;;;;;;;;;;10372456;28;20486;-58
2023/01/22 22:11:12;;;;;;;7.72;3.17;;;;;;;;;;10365105;28;20092;-51
2023/01/22 22:16:13;;;;;;;5.43;2.30;;;;;;;;;;10374331;28;20047;-50
2023/01/22 22:21:14;;;;;;;7.25;2.58;;;;;;;;;;10368292;28;20037;-67
2023/01/22 22:26:14;;;;;;;7.85;3.08;;;;;;;;;;10360184;28;20181;-50
2023/01/22 22:31:16;;;;;;;5.28;2.50;;;;;;;;;;10360070;28;20033;-49
2023/01/22 22:36:20;;;;;;;5.88;2.38;;;;;;;;;;10362730;28;20025;-46
2023/01/22 22:41:25;;;;;;;5.95;2.75;;;;;;;;;;10363722;28;20133;-45
2023/01/22 22:46:31;;;;;;;4.85;2.17;;;;;;;;;;10362917;28;20261;-51
2023/01/22 22:51:39;;;;;;;4.05;2.47;;;;;;;;;;10344822;28;20052;-46
2023/01/22 22:56:40;;;;;;;4.95;2.22;;;;;;;;;;10362052;28;20527;-47
2023/01/22 23:01:40;;;;;;;6.22;2.30;;;;;;;;;;10361497;28;20168;-49
2023/01/22 23:06:43;;;;;;;3.17;2.30;;;;;;;;;;10362584;28;20489;-49
2023/01/22 23:11:45;;;;;;;4.28;2.25;;;;;;;;;;10362249;28;20033;-65
2023/01/22 23:16:46;;;;;;;4.38;2.35;;;;;;;;;;10360606;28;20038;-51
2023/01/22 23:21:54;;;;;;;7.80;2.75;;;;;;;;;;10362145;28;20072;-48
2023/01/22 23:26:55;;;;;;;3.30;2.00;;;;;;;;;;10364017;28;20096;-46
2023/01/22 23:31:56;;;;;;;2.70;2.35;;;;;;;;;;10368495;28;20034;-57
2023/01/22 23:36:56;;;;;;;6.03;2.50;;;;;;;;;;10368586;28;20080;-45
2023/01/22 23:41:57;;;;;;;4.35;2.45;;;;;;;;;;10367640;28;20049;-51
2023/01/22 23:46:58;;;;;;;5.15;2.33;;;;;;;;;;10369048;28;20029;-47
2023/01/22 23:51:58;;;;;;;3.25;2.25;;;;;;;;;;10369790;28;20068;-50
2023/01/22 23:56:59;;;;;;;2.40;1.90;;;;;;;;;;10369301;28;20037;-51
